EJU36BG EGKK-LPPT
Flight info
| Callsign | EJU36BG |
|---|---|
| Flight time | 2h 21m |
| Altitude | 36000 |
| Route | IMVUR N63 SAM M195 LORKU DCT BALDA DCT ABUPI DCT XAMAX |
| Aircraft | A320/M-SDE2E3FGHIJ1RWXYZ/LB1 |
Departure
| Time | 2026-05-07 16:21 |
|---|---|
| Airport | London Gatwick Airport (EGKK) |
Arrival
| Time | 2026-05-07 18:43 |
|---|---|
| Airport | Lisbon Humberto Delgado Airport (LPPT) |
| Time | Latitude | Longitude | Altitude | Speed | Heading |
|---|---|---|---|---|---|
| 2026-05-07 16:05 | 51.15870 | -0.17373 | 210 ft | 0 kts | 347° |
| 2026-05-07 16:07 | 51.15859 | -0.17369 | 216 ft | 3 kts | 347° |
| 2026-05-07 16:07 | 51.15837 | -0.17361 | 210 ft | 3 kts | 347° |
| 2026-05-07 16:08 | 51.15817 | -0.17354 | 216 ft | 2 kts | 347° |
| 2026-05-07 16:08 | 51.15797 | -0.17345 | 210 ft | 3 kts | 324° |
| 2026-05-07 16:08 | 51.15787 | -0.17323 | 207 ft | 3 kts | 262° |
| 2026-05-07 16:08 | 51.15791 | -0.17291 | 206 ft | 2 kts | 258° |
| 2026-05-07 16:09 | 51.15791 | -0.17289 | 204 ft | 0 kts | 258° |
| 2026-05-07 16:10 | 51.15790 | -0.17297 | 211 ft | 4 kts | 258° |
| 2026-05-07 16:10 | 51.15774 | -0.17421 | 209 ft | 13 kts | 257° |
| 2026-05-07 16:11 | 51.15750 | -0.17586 | 204 ft | 17 kts | 257° |
| 2026-05-07 16:11 | 51.15723 | -0.17787 | 204 ft | 19 kts | 257° |
| 2026-05-07 16:11 | 51.15693 | -0.17995 | 204 ft | 20 kts | 256° |
| 2026-05-07 16:11 | 51.15663 | -0.18219 | 208 ft | 21 kts | 257° |
| 2026-05-07 16:12 | 51.15631 | -0.18450 | 209 ft | 22 kts | 258° |
| 2026-05-07 16:12 | 51.15599 | -0.18688 | 207 ft | 22 kts | 258° |
| 2026-05-07 16:12 | 51.15547 | -0.18827 | 213 ft | 13 kts | 189° |
| 2026-05-07 16:12 | 51.15440 | -0.18791 | 204 ft | 18 kts | 168° |
| 2026-05-07 16:13 | 51.15374 | -0.18766 | 204 ft | 12 kts | 166° |
| 2026-05-07 16:13 | 51.15272 | -0.18730 | 215 ft | 19 kts | 171° |
| 2026-05-07 16:13 | 51.15172 | -0.18694 | 207 ft | 14 kts | 170° |
| 2026-05-07 16:13 | 51.15117 | -0.18829 | 206 ft | 18 kts | 257° |
| 2026-05-07 16:14 | 51.15092 | -0.19007 | 208 ft | 16 kts | 257° |
| 2026-05-07 16:14 | 51.15070 | -0.19170 | 210 ft | 14 kts | 258° |
| 2026-05-07 16:14 | 51.15048 | -0.19326 | 206 ft | 15 kts | 259° |
| 2026-05-07 16:14 | 51.15026 | -0.19495 | 212 ft | 17 kts | 257° |
| 2026-05-07 16:15 | 51.14997 | -0.19690 | 208 ft | 19 kts | 257° |
| 2026-05-07 16:15 | 51.14967 | -0.19918 | 207 ft | 22 kts | 258° |
| 2026-05-07 16:15 | 51.14932 | -0.20171 | 205 ft | 25 kts | 256° |
| 2026-05-07 16:15 | 51.14892 | -0.20454 | 207 ft | 27 kts | 257° |
| 2026-05-07 16:16 | 51.14849 | -0.20762 | 206 ft | 29 kts | 257° |
| 2026-05-07 16:16 | 51.14810 | -0.21051 | 212 ft | 22 kts | 258° |
| 2026-05-07 16:16 | 51.14769 | -0.21291 | 214 ft | 22 kts | 252° |
| 2026-05-07 16:16 | 51.14704 | -0.21403 | 210 ft | 15 kts | 167° |
| 2026-05-07 16:17 | 51.14638 | -0.21334 | 207 ft | 10 kts | 158° |
| 2026-05-07 16:17 | 51.14621 | -0.21328 | 207 ft | 0 kts | 168° |
| 2026-05-07 16:20 | 51.14614 | -0.21326 | 205 ft | 5 kts | 168° |
| 2026-05-07 16:20 | 51.14544 | -0.21280 | 208 ft | 16 kts | 140° |
| 2026-05-07 16:20 | 51.14522 | -0.21149 | 202 ft | 3 kts | 78° |
| 2026-05-07 16:20 | 51.14525 | -0.21126 | 214 ft | 3 kts | 78° |
| 2026-05-07 16:21 | 51.14564 | -0.20835 | 205 ft | 61 kts | 78° |
| 2026-05-07 16:21 | 51.14704 | -0.19834 | 209 ft | 122 kts | 78° |
| 2026-05-07 16:21 | 51.14921 | -0.18255 | 224 ft | 166 kts | 77° |
| 2026-05-07 16:21 | 51.15165 | -0.16526 | 913 ft | 161 kts | 80° |
| 2026-05-07 16:22 | 51.15420 | -0.14702 | 1431 ft | 177 kts | 80° |
| 2026-05-07 16:22 | 51.15696 | -0.12716 | 1770 ft | 195 kts | 79° |
| 2026-05-07 16:22 | 51.15998 | -0.10504 | 2107 ft | 213 kts | 80° |
| 2026-05-07 16:22 | 51.16311 | -0.08125 | 2587 ft | 223 kts | 80° |
| 2026-05-07 16:23 | 51.16845 | -0.05842 | 3470 ft | 222 kts | 52° |
| 2026-05-07 16:23 | 51.18109 | -0.04512 | 4210 ft | 223 kts | 11° |
| 2026-05-07 16:23 | 51.19659 | -0.04553 | 4972 ft | 224 kts | 349° |
| 2026-05-07 16:23 | 51.21168 | -0.05180 | 5712 ft | 226 kts | 336° |
| 2026-05-07 16:24 | 51.22341 | -0.06807 | 6417 ft | 229 kts | 300° |
| 2026-05-07 16:24 | 51.22802 | -0.09221 | 7058 ft | 233 kts | 270° |
| 2026-05-07 16:24 | 51.22610 | -0.11905 | 7362 ft | 256 kts | 259° |
| 2026-05-07 16:24 | 51.22276 | -0.14802 | 7822 ft | 272 kts | 258° |
| 2026-05-07 16:25 | 51.21820 | -0.17753 | 8585 ft | 276 kts | 251° |
| 2026-05-07 16:25 | 51.21209 | -0.20680 | 9371 ft | 279 kts | 249° |
| 2026-05-07 16:25 | 51.20564 | -0.23620 | 10157 ft | 282 kts | 249° |
| 2026-05-07 16:25 | 51.19884 | -0.26655 | 10510 ft | 302 kts | 249° |
| 2026-05-07 16:26 | 51.19151 | -0.29915 | 10827 ft | 320 kts | 249° |
| 2026-05-07 16:26 | 51.18397 | -0.33292 | 11458 ft | 326 kts | 249° |
| 2026-05-07 16:26 | 51.17635 | -0.36724 | 12212 ft | 330 kts | 249° |
| 2026-05-07 16:26 | 51.16868 | -0.40188 | 12943 ft | 334 kts | 249° |
| 2026-05-07 16:27 | 51.16090 | -0.43706 | 13646 ft | 338 kts | 249° |
| 2026-05-07 16:27 | 51.15307 | -0.47255 | 14285 ft | 341 kts | 249° |
| 2026-05-07 16:27 | 51.14515 | -0.50826 | 14912 ft | 344 kts | 249° |
| 2026-05-07 16:27 | 51.13711 | -0.54424 | 15547 ft | 346 kts | 249° |
| 2026-05-07 16:28 | 51.12899 | -0.58039 | 16189 ft | 348 kts | 249° |
| 2026-05-07 16:28 | 51.12084 | -0.61683 | 16815 ft | 350 kts | 250° |
| 2026-05-07 16:28 | 51.11266 | -0.65350 | 17448 ft | 353 kts | 250° |
| 2026-05-07 16:28 | 51.10441 | -0.69039 | 18069 ft | 355 kts | 250° |
| 2026-05-07 16:29 | 51.09609 | -0.72753 | 18635 ft | 357 kts | 250° |
| 2026-05-07 16:29 | 51.08774 | -0.76473 | 19146 ft | 360 kts | 250° |
| 2026-05-07 16:29 | 51.07928 | -0.80230 | 19690 ft | 362 kts | 250° |
| 2026-05-07 16:29 | 51.07076 | -0.84016 | 20203 ft | 365 kts | 250° |
| 2026-05-07 16:30 | 51.06235 | -0.87744 | 20705 ft | 367 kts | 250° |
| 2026-05-07 16:30 | 51.05350 | -0.91647 | 21220 ft | 369 kts | 250° |
| 2026-05-07 16:30 | 51.04477 | -0.95492 | 21716 ft | 371 kts | 250° |
| 2026-05-07 16:30 | 51.03609 | -0.99311 | 22191 ft | 374 kts | 250° |
| 2026-05-07 16:31 | 51.02720 | -1.03200 | 22678 ft | 376 kts | 250° |
| 2026-05-07 16:31 | 51.01823 | -1.07121 | 23143 ft | 379 kts | 250° |
| 2026-05-07 16:31 | 51.00918 | -1.11068 | 23600 ft | 381 kts | 250° |
| 2026-05-07 16:31 | 51.00008 | -1.15032 | 23986 ft | 384 kts | 250° |
| 2026-05-07 16:32 | 50.99090 | -1.19021 | 24374 ft | 386 kts | 249° |
| 2026-05-07 16:32 | 50.98165 | -1.23028 | 24764 ft | 388 kts | 250° |
| 2026-05-07 16:32 | 50.97239 | -1.27057 | 25143 ft | 389 kts | 250° |
| 2026-05-07 16:32 | 50.96134 | -1.30977 | 25518 ft | 391 kts | 240° |
| 2026-05-07 16:33 | 50.94569 | -1.34510 | 25879 ft | 393 kts | 229° |
| 2026-05-07 16:33 | 50.92577 | -1.37506 | 26239 ft | 396 kts | 218° |
| 2026-05-07 16:33 | 50.90287 | -1.39968 | 26588 ft | 399 kts | 214° |
| 2026-05-07 16:33 | 50.87957 | -1.42378 | 26953 ft | 401 kts | 214° |
| 2026-05-07 16:34 | 50.85620 | -1.44804 | 27298 ft | 403 kts | 214° |
| 2026-05-07 16:34 | 50.83273 | -1.47247 | 27643 ft | 405 kts | 214° |
| 2026-05-07 16:34 | 50.80920 | -1.49696 | 27985 ft | 407 kts | 214° |
| 2026-05-07 16:34 | 50.78549 | -1.52159 | 28334 ft | 408 kts | 214° |
| 2026-05-07 16:35 | 50.76170 | -1.54623 | 28658 ft | 410 kts | 214° |
| 2026-05-07 16:35 | 50.73774 | -1.57098 | 28988 ft | 412 kts | 214° |
| 2026-05-07 16:35 | 50.71366 | -1.59580 | 29304 ft | 414 kts | 214° |
| 2026-05-07 16:35 | 50.68950 | -1.62067 | 29633 ft | 416 kts | 214° |
| 2026-05-07 16:36 | 50.66518 | -1.64570 | 29950 ft | 418 kts | 214° |
| 2026-05-07 16:36 | 50.64079 | -1.67081 | 30222 ft | 420 kts | 214° |
| 2026-05-07 16:36 | 50.61629 | -1.69599 | 30438 ft | 421 kts | 214° |
| 2026-05-07 16:36 | 50.59168 | -1.72124 | 30690 ft | 423 kts | 214° |
| 2026-05-07 16:37 | 50.56706 | -1.74647 | 30952 ft | 424 kts | 214° |
| 2026-05-07 16:37 | 50.54242 | -1.77170 | 31307 ft | 422 kts | 214° |
| 2026-05-07 16:37 | 50.52011 | -1.79450 | 31633 ft | 421 kts | 214° |
| 2026-05-07 16:37 | 50.49604 | -1.81911 | 31982 ft | 420 kts | 214° |
| 2026-05-07 16:38 | 50.47421 | -1.84140 | 32290 ft | 419 kts | 214° |
| 2026-05-07 16:38 | 50.44981 | -1.86623 | 32639 ft | 418 kts | 214° |
| 2026-05-07 16:38 | 50.42547 | -1.89098 | 32980 ft | 417 kts | 214° |
| 2026-05-07 16:38 | 50.40117 | -1.91566 | 33313 ft | 416 kts | 214° |
| 2026-05-07 16:39 | 50.37692 | -1.94026 | 33657 ft | 415 kts | 213° |
| 2026-05-07 16:39 | 50.35272 | -1.96478 | 33995 ft | 414 kts | 213° |
| 2026-05-07 16:39 | 50.32859 | -1.98922 | 34277 ft | 413 kts | 213° |
| 2026-05-07 16:39 | 50.30446 | -2.01362 | 34514 ft | 413 kts | 213° |
| 2026-05-07 16:40 | 50.28028 | -2.03799 | 34733 ft | 413 kts | 213° |
| 2026-05-07 16:40 | 50.25612 | -2.06227 | 34964 ft | 413 kts | 213° |
| 2026-05-07 16:40 | 50.23186 | -2.08654 | 35156 ft | 414 kts | 213° |
| 2026-05-07 16:40 | 50.20752 | -2.11056 | 35354 ft | 414 kts | 213° |
| 2026-05-07 16:41 | 50.18307 | -2.13439 | 35557 ft | 415 kts | 212° |
| 2026-05-07 16:41 | 50.15856 | -2.15811 | 35746 ft | 415 kts | 212° |
| 2026-05-07 16:41 | 50.13403 | -2.18183 | 35943 ft | 415 kts | 212° |
| 2026-05-07 16:42 | 50.08511 | -2.22910 | 36026 ft | 412 kts | 212° |
| 2026-05-07 16:42 | 50.03651 | -2.27613 | 36024 ft | 411 kts | 212° |
| 2026-05-07 16:43 | 49.98799 | -2.32310 | 36023 ft | 411 kts | 212° |
| 2026-05-07 16:43 | 49.93924 | -2.36945 | 36015 ft | 411 kts | 208° |
| 2026-05-07 16:44 | 49.88669 | -2.40543 | 36021 ft | 415 kts | 204° |
| 2026-05-07 16:44 | 49.83305 | -2.44105 | 36026 ft | 424 kts | 204° |
| 2026-05-07 16:45 | 49.77814 | -2.47745 | 36029 ft | 433 kts | 204° |
| 2026-05-07 16:45 | 49.72247 | -2.51421 | 36025 ft | 436 kts | 204° |
| 2026-05-07 16:46 | 49.66664 | -2.55110 | 36019 ft | 436 kts | 204° |
| 2026-05-07 16:46 | 49.61123 | -2.58755 | 36005 ft | 436 kts | 204° |
| 2026-05-07 16:47 | 49.55551 | -2.62411 | 36003 ft | 436 kts | 204° |
| 2026-05-07 16:47 | 49.49977 | -2.66072 | 35999 ft | 435 kts | 204° |
| 2026-05-07 16:48 | 49.44404 | -2.69721 | 36000 ft | 435 kts | 204° |
| 2026-05-07 16:48 | 49.38828 | -2.73346 | 35998 ft | 435 kts | 204° |
| 2026-05-07 16:49 | 49.33252 | -2.76961 | 35997 ft | 435 kts | 204° |
| 2026-05-07 16:49 | 49.27677 | -2.80580 | 35995 ft | 435 kts | 204° |
| 2026-05-07 16:50 | 49.22108 | -2.84186 | 35983 ft | 435 kts | 204° |
| 2026-05-07 16:50 | 49.16530 | -2.87789 | 35982 ft | 435 kts | 204° |
| 2026-05-07 16:51 | 49.10949 | -2.91382 | 35980 ft | 435 kts | 204° |
| 2026-05-07 16:51 | 49.05365 | -2.94969 | 35982 ft | 435 kts | 204° |
| 2026-05-07 16:52 | 48.99780 | -2.98546 | 35973 ft | 435 kts | 204° |
| 2026-05-07 16:52 | 48.94234 | -3.02086 | 35981 ft | 435 kts | 204° |
| 2026-05-07 16:53 | 48.88652 | -3.05642 | 35974 ft | 435 kts | 204° |
| 2026-05-07 16:53 | 48.83084 | -3.09178 | 35989 ft | 435 kts | 204° |
| 2026-05-07 16:54 | 48.77501 | -3.12719 | 35986 ft | 435 kts | 204° |
| 2026-05-07 16:54 | 48.71918 | -3.16261 | 35985 ft | 435 kts | 204° |
| 2026-05-07 16:55 | 48.66335 | -3.19789 | 35985 ft | 435 kts | 203° |
| 2026-05-07 16:55 | 48.60744 | -3.23307 | 35985 ft | 435 kts | 203° |
| 2026-05-07 16:56 | 48.55153 | -3.26817 | 35977 ft | 435 kts | 204° |
| 2026-05-07 16:56 | 48.46768 | -3.32072 | 35988 ft | 435 kts | 203° |
| 2026-05-07 16:57 | 48.41213 | -3.35545 | 35991 ft | 435 kts | 204° |
| 2026-05-07 16:57 | 48.35585 | -3.39060 | 35983 ft | 435 kts | 203° |
| 2026-05-07 16:58 | 48.29999 | -3.42527 | 35988 ft | 435 kts | 203° |
| 2026-05-07 16:58 | 48.24445 | -3.45971 | 36001 ft | 435 kts | 203° |
| 2026-05-07 16:59 | 48.18852 | -3.49432 | 35993 ft | 435 kts | 203° |
| 2026-05-07 16:59 | 48.13254 | -3.52886 | 35987 ft | 435 kts | 203° |
| 2026-05-07 17:00 | 48.07655 | -3.56335 | 35996 ft | 435 kts | 203° |
| 2026-05-07 17:00 | 48.02056 | -3.59775 | 35998 ft | 435 kts | 203° |
| 2026-05-07 17:01 | 47.96454 | -3.63202 | 36000 ft | 435 kts | 203° |
| 2026-05-07 17:01 | 47.90848 | -3.66628 | 35987 ft | 435 kts | 203° |
| 2026-05-07 17:02 | 47.86146 | -3.69495 | 35987 ft | 435 kts | 203° |
| 2026-05-07 17:02 | 47.80539 | -3.72917 | 35997 ft | 436 kts | 203° |
| 2026-05-07 17:03 | 47.74928 | -3.76321 | 35998 ft | 436 kts | 203° |
| 2026-05-07 17:03 | 47.69343 | -3.79705 | 35998 ft | 437 kts | 203° |
| 2026-05-07 17:04 | 47.63716 | -3.83104 | 36004 ft | 437 kts | 203° |
| 2026-05-07 17:04 | 47.58079 | -3.86505 | 35997 ft | 437 kts | 203° |
| 2026-05-07 17:05 | 47.52442 | -3.89894 | 35985 ft | 437 kts | 203° |
| 2026-05-07 17:05 | 47.46799 | -3.93281 | 35986 ft | 437 kts | 203° |
| 2026-05-07 17:06 | 47.41684 | -3.96344 | 35989 ft | 438 kts | 203° |
| 2026-05-07 17:06 | 47.36363 | -3.99530 | 35986 ft | 438 kts | 203° |
| 2026-05-07 17:07 | 47.30714 | -4.02903 | 35984 ft | 438 kts | 203° |
| 2026-05-07 17:07 | 47.25049 | -4.06274 | 35991 ft | 439 kts | 203° |
| 2026-05-07 17:08 | 47.19396 | -4.09635 | 35986 ft | 439 kts | 203° |
| 2026-05-07 17:08 | 47.13738 | -4.12989 | 35991 ft | 439 kts | 204° |
| 2026-05-07 17:09 | 47.08116 | -4.16305 | 35965 ft | 441 kts | 204° |
| 2026-05-07 17:09 | 47.02414 | -4.19660 | 35958 ft | 442 kts | 204° |
| 2026-05-07 17:10 | 46.96695 | -4.23018 | 35974 ft | 443 kts | 204° |
| 2026-05-07 17:10 | 46.90957 | -4.26381 | 35974 ft | 444 kts | 204° |
| 2026-05-07 17:11 | 46.85218 | -4.29741 | 35968 ft | 444 kts | 204° |
| 2026-05-07 17:11 | 46.79472 | -4.33109 | 35971 ft | 445 kts | 204° |
| 2026-05-07 17:12 | 46.73725 | -4.36465 | 35970 ft | 445 kts | 204° |
| 2026-05-07 17:12 | 46.68004 | -4.39783 | 35972 ft | 446 kts | 204° |
| 2026-05-07 17:13 | 46.62239 | -4.43120 | 35977 ft | 446 kts | 204° |
| 2026-05-07 17:13 | 46.56478 | -4.46457 | 35979 ft | 446 kts | 204° |
| 2026-05-07 17:14 | 46.50708 | -4.49796 | 35982 ft | 446 kts | 204° |
| 2026-05-07 17:14 | 46.44935 | -4.53117 | 35967 ft | 446 kts | 204° |
| 2026-05-07 17:15 | 46.39160 | -4.56442 | 35972 ft | 447 kts | 204° |
| 2026-05-07 17:15 | 46.33381 | -4.59755 | 35970 ft | 447 kts | 204° |
| 2026-05-07 17:16 | 46.27600 | -4.63066 | 35969 ft | 447 kts | 204° |
| 2026-05-07 17:16 | 46.21813 | -4.66369 | 35958 ft | 447 kts | 204° |
| 2026-05-07 17:17 | 46.16018 | -4.69673 | 35963 ft | 448 kts | 204° |
| 2026-05-07 17:17 | 46.10215 | -4.72972 | 35966 ft | 448 kts | 203° |
| 2026-05-07 17:18 | 46.04412 | -4.76253 | 35961 ft | 449 kts | 204° |
| 2026-05-07 17:18 | 45.98593 | -4.79543 | 35961 ft | 450 kts | 204° |
| 2026-05-07 17:19 | 45.92760 | -4.82847 | 35959 ft | 451 kts | 204° |
| 2026-05-07 17:19 | 45.86918 | -4.86134 | 35957 ft | 451 kts | 204° |
| 2026-05-07 17:20 | 45.81069 | -4.89413 | 35950 ft | 452 kts | 204° |
| 2026-05-07 17:20 | 45.75213 | -4.92697 | 35962 ft | 452 kts | 204° |
| 2026-05-07 17:21 | 45.69353 | -4.95982 | 35962 ft | 452 kts | 204° |
| 2026-05-07 17:21 | 45.63536 | -4.99233 | 35950 ft | 452 kts | 204° |
| 2026-05-07 17:22 | 45.57680 | -5.02492 | 35952 ft | 452 kts | 204° |
| 2026-05-07 17:22 | 45.51820 | -5.05740 | 35951 ft | 452 kts | 204° |
| 2026-05-07 17:23 | 45.45962 | -5.08993 | 35932 ft | 452 kts | 204° |
| 2026-05-07 17:23 | 45.40094 | -5.12235 | 35928 ft | 453 kts | 204° |
| 2026-05-07 17:24 | 45.34207 | -5.15481 | 35930 ft | 453 kts | 204° |
| 2026-05-07 17:24 | 45.28322 | -5.18713 | 35933 ft | 454 kts | 204° |
| 2026-05-07 17:25 | 45.22427 | -5.21948 | 35926 ft | 454 kts | 204° |
| 2026-05-07 17:25 | 45.16529 | -5.25188 | 35926 ft | 455 kts | 204° |
| 2026-05-07 17:26 | 45.10621 | -5.28426 | 35931 ft | 455 kts | 204° |
| 2026-05-07 17:26 | 45.04711 | -5.31645 | 35926 ft | 455 kts | 204° |
| 2026-05-07 17:27 | 44.98845 | -5.34843 | 35927 ft | 455 kts | 204° |
| 2026-05-07 17:27 | 44.92943 | -5.38055 | 35922 ft | 454 kts | 204° |
| 2026-05-07 17:28 | 44.87044 | -5.41253 | 35926 ft | 454 kts | 204° |
| 2026-05-07 17:28 | 44.81136 | -5.44444 | 35920 ft | 455 kts | 204° |
| 2026-05-07 17:29 | 44.75232 | -5.47625 | 35926 ft | 455 kts | 204° |
| 2026-05-07 17:29 | 44.69324 | -5.50805 | 35927 ft | 455 kts | 204° |
| 2026-05-07 17:30 | 44.63416 | -5.53985 | 35927 ft | 455 kts | 204° |
| 2026-05-07 17:30 | 44.57535 | -5.57253 | 35931 ft | 454 kts | 206° |
| 2026-05-07 17:31 | 44.51776 | -5.60852 | 35928 ft | 453 kts | 208° |
| 2026-05-07 17:31 | 44.46040 | -5.64528 | 35918 ft | 453 kts | 207° |
| 2026-05-07 17:32 | 44.40282 | -5.68123 | 35921 ft | 453 kts | 207° |
| 2026-05-07 17:32 | 44.35482 | -5.71048 | 35912 ft | 453 kts | 206° |
| 2026-05-07 17:33 | 44.28743 | -5.75164 | 35913 ft | 452 kts | 207° |
| 2026-05-07 17:33 | 44.22976 | -5.78690 | 35896 ft | 453 kts | 207° |
| 2026-05-07 17:34 | 44.17202 | -5.82214 | 35903 ft | 453 kts | 207° |
| 2026-05-07 17:34 | 44.11427 | -5.85729 | 35907 ft | 453 kts | 207° |
| 2026-05-07 17:35 | 44.05656 | -5.89240 | 35896 ft | 453 kts | 207° |
| 2026-05-07 17:35 | 43.99874 | -5.92749 | 35902 ft | 454 kts | 207° |
| 2026-05-07 17:36 | 43.94084 | -5.96248 | 35905 ft | 454 kts | 207° |
| 2026-05-07 17:36 | 43.88288 | -5.99748 | 35907 ft | 454 kts | 207° |
| 2026-05-07 17:37 | 43.82494 | -6.03237 | 35880 ft | 454 kts | 208° |
| 2026-05-07 17:37 | 43.76706 | -6.06725 | 35894 ft | 454 kts | 208° |
| 2026-05-07 17:38 | 43.70908 | -6.10210 | 35874 ft | 454 kts | 208° |
| 2026-05-07 17:38 | 43.65141 | -6.13664 | 35867 ft | 454 kts | 208° |
| 2026-05-07 17:39 | 43.59340 | -6.17131 | 35873 ft | 454 kts | 208° |
| 2026-05-07 17:39 | 43.53540 | -6.20596 | 35878 ft | 455 kts | 208° |
| 2026-05-07 17:40 | 43.47728 | -6.24057 | 35887 ft | 454 kts | 208° |
| 2026-05-07 17:40 | 43.41926 | -6.27497 | 35875 ft | 455 kts | 208° |
| 2026-05-07 17:41 | 43.36114 | -6.30942 | 35875 ft | 455 kts | 208° |
| 2026-05-07 17:41 | 43.30292 | -6.34385 | 35879 ft | 456 kts | 208° |
| 2026-05-07 17:42 | 43.24466 | -6.37824 | 35862 ft | 456 kts | 208° |
| 2026-05-07 17:42 | 43.18638 | -6.41253 | 35887 ft | 456 kts | 208° |
| 2026-05-07 17:43 | 43.12815 | -6.44682 | 35895 ft | 455 kts | 208° |
| 2026-05-07 17:43 | 43.07000 | -6.48098 | 35897 ft | 455 kts | 209° |
| 2026-05-07 17:44 | 43.01188 | -6.51485 | 35904 ft | 453 kts | 209° |
| 2026-05-07 17:44 | 42.95395 | -6.54864 | 35904 ft | 452 kts | 209° |
| 2026-05-07 17:45 | 42.89629 | -6.58224 | 35899 ft | 450 kts | 209° |
| 2026-05-07 17:45 | 42.83876 | -6.61576 | 35901 ft | 449 kts | 209° |
| 2026-05-07 17:46 | 42.78135 | -6.64913 | 35890 ft | 448 kts | 209° |
| 2026-05-07 17:46 | 42.72414 | -6.68233 | 35897 ft | 446 kts | 209° |
| 2026-05-07 17:47 | 42.66700 | -6.71544 | 35897 ft | 445 kts | 209° |
| 2026-05-07 17:47 | 42.60996 | -6.74819 | 35893 ft | 445 kts | 209° |
| 2026-05-07 17:48 | 42.55328 | -6.78076 | 35890 ft | 445 kts | 209° |
| 2026-05-07 17:48 | 42.49637 | -6.81359 | 35887 ft | 445 kts | 209° |
| 2026-05-07 17:49 | 42.43939 | -6.84635 | 35884 ft | 444 kts | 209° |
| 2026-05-07 17:49 | 42.38252 | -6.87886 | 35877 ft | 443 kts | 209° |
| 2026-05-07 17:50 | 42.33501 | -6.90595 | 35900 ft | 442 kts | 209° |
| 2026-05-07 17:50 | 42.27843 | -6.93816 | 35904 ft | 440 kts | 209° |
| 2026-05-07 17:51 | 42.22239 | -6.97002 | 35905 ft | 439 kts | 209° |
| 2026-05-07 17:51 | 42.16606 | -7.00202 | 35895 ft | 439 kts | 209° |
| 2026-05-07 17:52 | 42.10981 | -7.03399 | 35899 ft | 438 kts | 209° |
| 2026-05-07 17:52 | 42.05364 | -7.06586 | 35898 ft | 438 kts | 209° |
| 2026-05-07 17:53 | 41.99757 | -7.09756 | 35895 ft | 437 kts | 209° |
| 2026-05-07 17:53 | 41.94143 | -7.12924 | 35879 ft | 437 kts | 209° |
| 2026-05-07 17:54 | 41.88541 | -7.16079 | 35880 ft | 436 kts | 209° |
| 2026-05-07 17:54 | 41.82939 | -7.19217 | 35885 ft | 437 kts | 209° |
| 2026-05-07 17:55 | 41.77335 | -7.22352 | 35879 ft | 436 kts | 208° |
| 2026-05-07 17:56 | 41.66440 | -7.30353 | 35887 ft | 429 kts | 216° |
| 2026-05-07 17:56 | 41.61280 | -7.34359 | 35894 ft | 429 kts | 216° |
| 2026-05-07 17:57 | 41.56995 | -7.37671 | 35902 ft | 428 kts | 216° |
| 2026-05-07 17:57 | 41.50998 | -7.42304 | 35911 ft | 423 kts | 216° |
| 2026-05-07 17:58 | 41.45917 | -7.46234 | 35921 ft | 421 kts | 216° |
| 2026-05-07 17:58 | 41.40852 | -7.50129 | 35916 ft | 419 kts | 216° |
| 2026-05-07 17:59 | 41.35803 | -7.54010 | 35917 ft | 419 kts | 216° |
| 2026-05-07 17:59 | 41.30794 | -7.57856 | 35900 ft | 418 kts | 216° |
| 2026-05-07 18:00 | 41.28279 | -7.59784 | 35771 ft | 416 kts | 216° |
| 2026-05-07 18:00 | 41.25771 | -7.61705 | 35428 ft | 415 kts | 215° |
| 2026-05-07 18:00 | 41.23274 | -7.63615 | 35061 ft | 414 kts | 215° |
| 2026-05-07 18:00 | 41.20894 | -7.65435 | 34868 ft | 414 kts | 215° |
| 2026-05-07 18:01 | 41.15946 | -7.69217 | 34894 ft | 407 kts | 215° |
| 2026-05-07 18:01 | 41.11070 | -7.72928 | 34897 ft | 404 kts | 215° |
| 2026-05-07 18:02 | 41.03789 | -7.78471 | 34896 ft | 401 kts | 215° |
| 2026-05-07 18:03 | 40.98948 | -7.82148 | 34893 ft | 401 kts | 215° |
| 2026-05-07 18:03 | 40.94108 | -7.85812 | 34893 ft | 401 kts | 215° |
| 2026-05-07 18:04 | 40.89285 | -7.89469 | 34902 ft | 401 kts | 215° |
| 2026-05-07 18:04 | 40.84525 | -7.93069 | 34897 ft | 401 kts | 215° |
| 2026-05-07 18:05 | 40.79686 | -7.96704 | 34901 ft | 401 kts | 215° |
| 2026-05-07 18:05 | 40.74864 | -8.00324 | 34900 ft | 401 kts | 215° |
| 2026-05-07 18:06 | 40.70016 | -8.03971 | 34902 ft | 401 kts | 215° |
| 2026-05-07 18:06 | 40.65167 | -8.07610 | 34912 ft | 401 kts | 215° |
| 2026-05-07 18:07 | 40.60321 | -8.11233 | 34921 ft | 401 kts | 214° |
| 2026-05-07 18:07 | 40.55463 | -8.14862 | 34911 ft | 401 kts | 214° |
| 2026-05-07 18:08 | 40.50639 | -8.18464 | 34906 ft | 401 kts | 214° |
| 2026-05-07 18:08 | 40.45780 | -8.22083 | 34868 ft | 402 kts | 214° |
| 2026-05-07 18:08 | 40.43344 | -8.23897 | 34621 ft | 402 kts | 214° |
| 2026-05-07 18:09 | 40.40911 | -8.25704 | 34381 ft | 403 kts | 214° |
| 2026-05-07 18:09 | 40.38468 | -8.27515 | 34134 ft | 403 kts | 214° |
| 2026-05-07 18:09 | 40.36028 | -8.29325 | 33910 ft | 404 kts | 214° |
| 2026-05-07 18:09 | 40.33573 | -8.31146 | 33639 ft | 405 kts | 214° |
| 2026-05-07 18:10 | 40.31123 | -8.32963 | 33356 ft | 406 kts | 214° |
| 2026-05-07 18:10 | 40.28660 | -8.34790 | 33099 ft | 407 kts | 213° |
| 2026-05-07 18:10 | 40.26200 | -8.36611 | 32829 ft | 407 kts | 213° |
| 2026-05-07 18:10 | 40.23729 | -8.38438 | 32565 ft | 407 kts | 213° |
| 2026-05-07 18:11 | 40.21263 | -8.40259 | 32305 ft | 408 kts | 213° |
| 2026-05-07 18:11 | 40.19622 | -8.41470 | 32137 ft | 409 kts | 213° |
| 2026-05-07 18:11 | 40.16302 | -8.43918 | 31676 ft | 412 kts | 213° |
| 2026-05-07 18:11 | 40.13786 | -8.45771 | 30715 ft | 418 kts | 213° |
| 2026-05-07 18:12 | 40.11245 | -8.47640 | 29814 ft | 421 kts | 212° |
| 2026-05-07 18:12 | 40.08722 | -8.49491 | 29519 ft | 409 kts | 212° |
| 2026-05-07 18:12 | 40.06276 | -8.51252 | 29377 ft | 396 kts | 209° |
| 2026-05-07 18:12 | 40.03743 | -8.52542 | 29233 ft | 386 kts | 199° |
| 2026-05-07 18:13 | 40.01131 | -8.53196 | 29089 ft | 379 kts | 189° |
| 2026-05-07 18:13 | 39.98512 | -8.53239 | 28752 ft | 376 kts | 181° |
| 2026-05-07 18:13 | 39.95918 | -8.53014 | 28308 ft | 372 kts | 181° |
| 2026-05-07 18:13 | 39.93350 | -8.52794 | 27825 ft | 368 kts | 181° |
| 2026-05-07 18:14 | 39.90807 | -8.52581 | 27409 ft | 364 kts | 181° |
| 2026-05-07 18:14 | 39.88294 | -8.52373 | 26977 ft | 360 kts | 181° |
| 2026-05-07 18:14 | 39.86639 | -8.52234 | 26684 ft | 358 kts | 181° |
| 2026-05-07 18:14 | 39.84169 | -8.52026 | 26254 ft | 355 kts | 181° |
| 2026-05-07 18:15 | 39.81714 | -8.51820 | 25834 ft | 352 kts | 181° |
| 2026-05-07 18:15 | 39.79275 | -8.51621 | 25414 ft | 348 kts | 182° |
| 2026-05-07 18:15 | 39.76889 | -8.51793 | 25001 ft | 340 kts | 194° |
| 2026-05-07 18:15 | 39.74639 | -8.52581 | 24595 ft | 332 kts | 204° |
| 2026-05-07 18:16 | 39.72594 | -8.53907 | 24247 ft | 327 kts | 214° |
| 2026-05-07 18:16 | 39.70663 | -8.55478 | 24007 ft | 327 kts | 217° |
| 2026-05-07 18:16 | 39.68954 | -8.57411 | 23777 ft | 325 kts | 224° |
| 2026-05-07 18:16 | 39.67307 | -8.59420 | 23554 ft | 325 kts | 224° |
| 2026-05-07 18:17 | 39.65661 | -8.61430 | 23293 ft | 324 kts | 224° |
| 2026-05-07 18:17 | 39.64021 | -8.63434 | 23022 ft | 323 kts | 224° |
| 2026-05-07 18:17 | 39.62388 | -8.65429 | 22756 ft | 323 kts | 224° |
| 2026-05-07 18:17 | 39.60759 | -8.67423 | 22491 ft | 322 kts | 224° |
| 2026-05-07 18:18 | 39.59128 | -8.69417 | 22224 ft | 322 kts | 224° |
| 2026-05-07 18:18 | 39.57499 | -8.71401 | 21957 ft | 321 kts | 223° |
| 2026-05-07 18:18 | 39.55874 | -8.73378 | 21711 ft | 320 kts | 223° |
| 2026-05-07 18:18 | 39.54276 | -8.75323 | 21463 ft | 319 kts | 223° |
| 2026-05-07 18:19 | 39.52659 | -8.77290 | 21201 ft | 318 kts | 223° |
| 2026-05-07 18:19 | 39.51009 | -8.79196 | 20946 ft | 318 kts | 215° |
| 2026-05-07 18:19 | 39.49168 | -8.80777 | 20701 ft | 318 kts | 213° |
| 2026-05-07 18:19 | 39.47320 | -8.82343 | 20454 ft | 317 kts | 213° |
| 2026-05-07 18:20 | 39.45479 | -8.83899 | 20205 ft | 316 kts | 213° |
| 2026-05-07 18:20 | 39.43637 | -8.85451 | 19961 ft | 316 kts | 213° |
| 2026-05-07 18:20 | 39.41799 | -8.87000 | 19716 ft | 315 kts | 213° |
| 2026-05-07 18:20 | 39.39962 | -8.88547 | 19474 ft | 314 kts | 212° |
| 2026-05-07 18:21 | 39.38132 | -8.90085 | 19240 ft | 314 kts | 212° |
| 2026-05-07 18:21 | 39.36301 | -8.91623 | 19010 ft | 313 kts | 212° |
| 2026-05-07 18:21 | 39.34474 | -8.93155 | 18771 ft | 313 kts | 212° |
| 2026-05-07 18:21 | 39.32651 | -8.94682 | 18538 ft | 312 kts | 212° |
| 2026-05-07 18:22 | 39.30827 | -8.96211 | 18313 ft | 312 kts | 212° |
| 2026-05-07 18:22 | 39.29623 | -8.97220 | 18141 ft | 312 kts | 212° |
| 2026-05-07 18:22 | 39.27223 | -8.99228 | 17791 ft | 310 kts | 212° |
| 2026-05-07 18:22 | 39.25487 | -9.00680 | 17535 ft | 309 kts | 211° |
| 2026-05-07 18:23 | 39.23622 | -9.02239 | 17264 ft | 308 kts | 212° |
| 2026-05-07 18:23 | 39.21834 | -9.03736 | 16995 ft | 306 kts | 212° |
| 2026-05-07 18:23 | 39.20141 | -9.05152 | 16740 ft | 303 kts | 211° |
| 2026-05-07 18:23 | 39.18382 | -9.06624 | 16490 ft | 303 kts | 211° |
| 2026-05-07 18:24 | 39.16625 | -9.08093 | 16241 ft | 301 kts | 212° |
| 2026-05-07 18:24 | 39.14870 | -9.09561 | 15998 ft | 300 kts | 212° |
| 2026-05-07 18:24 | 39.13124 | -9.11018 | 15746 ft | 298 kts | 211° |
| 2026-05-07 18:24 | 39.11386 | -9.12464 | 15496 ft | 297 kts | 211° |
| 2026-05-07 18:25 | 39.09659 | -9.13898 | 15252 ft | 296 kts | 211° |
| 2026-05-07 18:25 | 39.07928 | -9.15335 | 15000 ft | 296 kts | 211° |
| 2026-05-07 18:25 | 39.06205 | -9.16769 | 14764 ft | 295 kts | 211° |
| 2026-05-07 18:25 | 39.04484 | -9.18202 | 14518 ft | 294 kts | 211° |
| 2026-05-07 18:26 | 39.02770 | -9.19628 | 14279 ft | 293 kts | 211° |
| 2026-05-07 18:26 | 39.01065 | -9.21041 | 14041 ft | 293 kts | 211° |
| 2026-05-07 18:26 | 38.99350 | -9.22461 | 13807 ft | 293 kts | 211° |
| 2026-05-07 18:26 | 38.97640 | -9.23879 | 13545 ft | 292 kts | 211° |
| 2026-05-07 18:27 | 38.95940 | -9.25291 | 13274 ft | 290 kts | 211° |
| 2026-05-07 18:27 | 38.94246 | -9.26694 | 13018 ft | 289 kts | 211° |
| 2026-05-07 18:27 | 38.92559 | -9.28090 | 12757 ft | 288 kts | 211° |
| 2026-05-07 18:27 | 38.90882 | -9.29479 | 12486 ft | 286 kts | 211° |
| 2026-05-07 18:28 | 38.89219 | -9.30857 | 12165 ft | 284 kts | 211° |
| 2026-05-07 18:28 | 38.87564 | -9.32227 | 11832 ft | 282 kts | 211° |
| 2026-05-07 18:28 | 38.85919 | -9.33585 | 11496 ft | 280 kts | 211° |
| 2026-05-07 18:28 | 38.84283 | -9.34931 | 11165 ft | 279 kts | 211° |
| 2026-05-07 18:29 | 38.82654 | -9.36269 | 10855 ft | 276 kts | 211° |
| 2026-05-07 18:29 | 38.81063 | -9.37580 | 10723 ft | 267 kts | 211° |
| 2026-05-07 18:29 | 38.79527 | -9.38847 | 10606 ft | 258 kts | 211° |
| 2026-05-07 18:29 | 38.78045 | -9.40070 | 10484 ft | 248 kts | 211° |
| 2026-05-07 18:30 | 38.76612 | -9.41251 | 10319 ft | 242 kts | 211° |
| 2026-05-07 18:30 | 38.75203 | -9.42411 | 10084 ft | 240 kts | 211° |
| 2026-05-07 18:30 | 38.73802 | -9.43560 | 9780 ft | 239 kts | 211° |
| 2026-05-07 18:30 | 38.72399 | -9.44707 | 9438 ft | 239 kts | 211° |
| 2026-05-07 18:31 | 38.71002 | -9.45850 | 9105 ft | 238 kts | 211° |
| 2026-05-07 18:31 | 38.69610 | -9.46993 | 8775 ft | 238 kts | 212° |
| 2026-05-07 18:31 | 38.68222 | -9.48135 | 8434 ft | 237 kts | 212° |
| 2026-05-07 18:31 | 38.66844 | -9.49270 | 8115 ft | 235 kts | 212° |
| 2026-05-07 18:32 | 38.65476 | -9.50394 | 7941 ft | 233 kts | 212° |
| 2026-05-07 18:32 | 38.64106 | -9.51519 | 7945 ft | 235 kts | 212° |
| 2026-05-07 18:32 | 38.62747 | -9.52636 | 7946 ft | 236 kts | 212° |
| 2026-05-07 18:32 | 38.61365 | -9.53769 | 7949 ft | 236 kts | 212° |
| 2026-05-07 18:33 | 38.59914 | -9.54732 | 7952 ft | 236 kts | 198° |
| 2026-05-07 18:33 | 38.58295 | -9.55038 | 7947 ft | 237 kts | 179° |
| 2026-05-07 18:33 | 38.56665 | -9.54711 | 7949 ft | 238 kts | 170° |
| 2026-05-07 18:33 | 38.55047 | -9.54294 | 7952 ft | 238 kts | 171° |
| 2026-05-07 18:34 | 38.53422 | -9.53881 | 7952 ft | 238 kts | 171° |
| 2026-05-07 18:34 | 38.51798 | -9.53443 | 7947 ft | 239 kts | 165° |
| 2026-05-07 18:34 | 38.50346 | -9.52409 | 7941 ft | 243 kts | 139° |
| 2026-05-07 18:34 | 38.49415 | -9.50606 | 7936 ft | 250 kts | 111° |
| 2026-05-07 18:35 | 38.49268 | -9.48396 | 7733 ft | 254 kts | 80° |
| 2026-05-07 18:35 | 38.49935 | -9.46308 | 7523 ft | 256 kts | 63° |
| 2026-05-07 18:35 | 38.50771 | -9.44298 | 7326 ft | 256 kts | 64° |
| 2026-05-07 18:35 | 38.51611 | -9.42276 | 6935 ft | 260 kts | 64° |
| 2026-05-07 18:36 | 38.52451 | -9.40245 | 6577 ft | 255 kts | 64° |
| 2026-05-07 18:36 | 38.53268 | -9.38260 | 6275 ft | 253 kts | 64° |
| 2026-05-07 18:36 | 38.54085 | -9.36273 | 5949 ft | 250 kts | 64° |
| 2026-05-07 18:36 | 38.54880 | -9.34343 | 5650 ft | 241 kts | 63° |
| 2026-05-07 18:37 | 38.55647 | -9.32481 | 5366 ft | 233 kts | 63° |
| 2026-05-07 18:37 | 38.56388 | -9.30670 | 5090 ft | 227 kts | 62° |
| 2026-05-07 18:37 | 38.57111 | -9.28896 | 4822 ft | 223 kts | 62° |
| 2026-05-07 18:37 | 38.57817 | -9.27160 | 4574 ft | 217 kts | 61° |
| 2026-05-07 18:38 | 38.58496 | -9.25493 | 4300 ft | 207 kts | 60° |
| 2026-05-07 18:38 | 38.59302 | -9.24008 | 4045 ft | 201 kts | 41° |
| 2026-05-07 18:38 | 38.60415 | -9.23042 | 3810 ft | 194 kts | 20° |
| 2026-05-07 18:38 | 38.61657 | -9.22381 | 3549 ft | 193 kts | 19° |
| 2026-05-07 18:39 | 38.62888 | -9.21726 | 3300 ft | 191 kts | 17° |
| 2026-05-07 18:39 | 38.64115 | -9.21073 | 3041 ft | 190 kts | 18° |
| 2026-05-07 18:39 | 38.65321 | -9.20430 | 2787 ft | 188 kts | 18° |
| 2026-05-07 18:39 | 38.66538 | -9.19782 | 2533 ft | 186 kts | 17° |
| 2026-05-07 18:40 | 38.67707 | -9.19159 | 2260 ft | 182 kts | 17° |
| 2026-05-07 18:40 | 38.68859 | -9.18544 | 2011 ft | 176 kts | 17° |
| 2026-05-07 18:40 | 38.69960 | -9.17956 | 1794 ft | 165 kts | 17° |
| 2026-05-07 18:40 | 38.70959 | -9.17421 | 1579 ft | 151 kts | 16° |
| 2026-05-07 18:41 | 38.71908 | -9.16915 | 1371 ft | 144 kts | 16° |
| 2026-05-07 18:41 | 38.72824 | -9.16428 | 1175 ft | 141 kts | 16° |
| 2026-05-07 18:41 | 38.73719 | -9.15951 | 987 ft | 139 kts | 17° |
| 2026-05-07 18:41 | 38.74610 | -9.15476 | 794 ft | 139 kts | 19° |
| 2026-05-07 18:42 | 38.75508 | -9.15004 | 645 ft | 139 kts | 16° |
| 2026-05-07 18:42 | 38.76398 | -9.14525 | 436 ft | 139 kts | 18° |
| 2026-05-07 18:42 | 38.77257 | -9.14061 | 362 ft | 120 kts | 24° |
| 2026-05-07 18:42 | 38.77876 | -9.13732 | 364 ft | 72 kts | 22° |
| 2026-05-07 18:43 | 38.78222 | -9.13534 | 369 ft | 33 kts | 35° |
| 2026-05-07 18:43 | 38.78371 | -9.13351 | 368 ft | 15 kts | 52° |
| 2026-05-07 18:43 | 38.78339 | -9.13263 | 359 ft | 8 kts | 170° |
| 2026-05-07 18:43 | 38.78295 | -9.13278 | 362 ft | 6 kts | 202° |
| 2026-05-07 18:44 | 38.78256 | -9.13298 | 361 ft | 6 kts | 202° |
| 2026-05-07 18:44 | 38.78219 | -9.13317 | 358 ft | 5 kts | 202° |
| 2026-05-07 18:44 | 38.78176 | -9.13339 | 360 ft | 11 kts | 201° |
| 2026-05-07 18:44 | 38.78078 | -9.13392 | 358 ft | 16 kts | 204° |
| 2026-05-07 18:45 | 38.78003 | -9.13412 | 356 ft | 11 kts | 168° |
| 2026-05-07 18:45 | 38.77915 | -9.13388 | 355 ft | 15 kts | 168° |
| 2026-05-07 18:45 | 38.77805 | -9.13358 | 346 ft | 13 kts | 168° |
| 2026-05-07 18:45 | 38.77714 | -9.13334 | 339 ft | 16 kts | 169° |
| 2026-05-07 18:46 | 38.77624 | -9.13320 | 335 ft | 12 kts | 179° |
| 2026-05-07 18:46 | 38.77544 | -9.13311 | 338 ft | 11 kts | 168° |
| 2026-05-07 18:46 | 38.77467 | -9.13289 | 337 ft | 11 kts | 167° |
| 2026-05-07 18:46 | 38.77411 | -9.13266 | 334 ft | 6 kts | 136° |
| 2026-05-07 18:47 | 38.77418 | -9.13217 | 336 ft | 7 kts | 79° |
| 2026-05-07 18:47 | 38.77427 | -9.13160 | 337 ft | 4 kts | 78° |
| 2026-05-07 18:47 | 38.77430 | -9.13142 | 337 ft | 1 kts | 78° |
| 2026-05-07 18:47 | 38.77430 | -9.13141 | 337 ft | 0 kts | 78° |
| 2026-05-07 18:50 | 38.77430 | -9.13139 | 337 ft | 0 kts | 78° |